sensor_id;sensor_type;location;lat;lon;timestamp;P1;durP1;ratioP1;P2;durP2;ratioP2
71806;SDS011;59655;42.590;23.364;2022-11-14T00:00:53;17.35;;;7.95;;
71806;SDS011;59655;42.590;23.364;2022-11-14T00:03:19;18.88;;;8.45;;
71806;SDS011;59655;42.590;23.364;2022-11-14T00:05:44;19.63;;;8.43;;
71806;SDS011;59655;42.590;23.364;2022-11-14T00:08:14;16.70;;;8.02;;
71806;SDS011;59655;42.590;23.364;2022-11-14T00:10:42;19.15;;;8.20;;
71806;SDS011;59655;42.590;23.364;2022-11-14T00:13:09;19.58;;;8.13;;
71806;SDS011;59655;42.590;23.364;2022-11-14T00:15:35;18.35;;;7.32;;
71806;SDS011;59655;42.590;23.364;2022-11-14T00:18:00;16.25;;;7.32;;
71806;SDS011;59655;42.590;23.364;2022-11-14T00:20:25;15.80;;;6.65;;
71806;SDS011;59655;42.590;23.364;2022-11-14T00:22:51;17.65;;;8.02;;
71806;SDS011;59655;42.590;23.364;2022-11-14T00:25:16;18.60;;;8.82;;
71806;SDS011;59655;42.590;23.364;2022-11-14T00:27:41;18.70;;;8.40;;
71806;SDS011;59655;42.590;23.364;2022-11-14T00:30:07;15.52;;;7.72;;
71806;SDS011;59655;42.590;23.364;2022-11-14T00:32:32;15.75;;;7.95;;
71806;SDS011;59655;42.590;23.364;2022-11-14T00:34:58;17.23;;;8.25;;
71806;SDS011;59655;42.590;23.364;2022-11-14T00:37:23;16.10;;;7.18;;
71806;SDS011;59655;42.590;23.364;2022-11-14T00:39:48;19.75;;;8.30;;
71806;SDS011;59655;42.590;23.364;2022-11-14T00:42:14;17.80;;;7.90;;
71806;SDS011;59655;42.590;23.364;2022-11-14T00:44:39;17.05;;;8.00;;
71806;SDS011;59655;42.590;23.364;2022-11-14T00:47:04;15.57;;;7.57;;
71806;SDS011;59655;42.590;23.364;2022-11-14T00:49:30;17.52;;;8.52;;
71806;SDS011;59655;42.590;23.364;2022-11-14T00:51:55;16.95;;;8.20;;
71806;SDS011;59655;42.590;23.364;2022-11-14T00:54:20;14.77;;;7.43;;
71806;SDS011;59655;42.590;23.364;2022-11-14T00:56:46;16.02;;;7.55;;
71806;SDS011;59655;42.590;23.364;2022-11-14T00:59:11;15.55;;;7.72;;
71806;SDS011;59655;42.590;23.364;2022-11-14T01:01:37;17.42;;;7.60;;
71806;SDS011;59655;42.590;23.364;2022-11-14T01:04:02;15.93;;;7.90;;
71806;SDS011;59655;42.590;23.364;2022-11-14T01:06:27;16.17;;;6.82;;
71806;SDS011;59655;42.590;23.364;2022-11-14T01:08:53;17.60;;;8.40;;
71806;SDS011;59655;42.590;23.364;2022-11-14T01:11:19;22.58;;;10.52;;
71806;SDS011;59655;42.590;23.364;2022-11-14T01:13:45;20.33;;;9.05;;
71806;SDS011;59655;42.590;23.364;2022-11-14T01:16:11;18.73;;;9.02;;
71806;SDS011;59655;42.590;23.364;2022-11-14T01:18:37;20.02;;;9.40;;
71806;SDS011;59655;42.590;23.364;2022-11-14T01:21:07;22.95;;;9.82;;
71806;SDS011;59655;42.590;23.364;2022-11-14T01:23:33;21.23;;;9.18;;
71806;SDS011;59655;42.590;23.364;2022-11-14T01:26:06;19.77;;;8.32;;
71806;SDS011;59655;42.590;23.364;2022-11-14T01:28:33;14.25;;;6.95;;
71806;SDS011;59655;42.590;23.364;2022-11-14T01:33:38;16.45;;;7.85;;
71806;SDS011;59655;42.590;23.364;2022-11-14T01:36:04;15.50;;;7.88;;
71806;SDS011;59655;42.590;23.364;2022-11-14T01:38:31;15.20;;;7.07;;
71806;SDS011;59655;42.590;23.364;2022-11-14T01:40:56;15.75;;;6.82;;
71806;SDS011;59655;42.590;23.364;2022-11-14T01:43:23;15.40;;;7.20;;
71806;SDS011;59655;42.590;23.364;2022-11-14T01:53:58;16.23;;;6.40;;
71806;SDS011;59655;42.590;23.364;2022-11-14T01:56:27;14.75;;;6.80;;
71806;SDS011;59655;42.590;23.364;2022-11-14T01:59:04;13.45;;;6.18;;
71806;SDS011;59655;42.590;23.364;2022-11-14T02:01:33;12.25;;;5.93;;
71806;SDS011;59655;42.590;23.364;2022-11-14T02:04:01;10.23;;;5.28;;
71806;SDS011;59655;42.590;23.364;2022-11-14T02:06:29;11.50;;;5.72;;
71806;SDS011;59655;42.590;23.364;2022-11-14T02:08:56;13.57;;;6.35;;
71806;SDS011;59655;42.590;23.364;2022-11-14T02:11:29;14.73;;;6.43;;
71806;SDS011;59655;42.590;23.364;2022-11-14T02:13:56;14.13;;;6.50;;
71806;SDS011;59655;42.590;23.364;2022-11-14T02:16:23;13.00;;;6.13;;
71806;SDS011;59655;42.590;23.364;2022-11-14T02:18:49;13.13;;;6.03;;
71806;SDS011;59655;42.590;23.364;2022-11-14T02:21:15;13.27;;;6.03;;
71806;SDS011;59655;42.590;23.364;2022-11-14T02:23:40;11.15;;;5.80;;
71806;SDS011;59655;42.590;23.364;2022-11-14T02:26:05;11.90;;;5.82;;
71806;SDS011;59655;42.590;23.364;2022-11-14T02:28:31;13.65;;;6.30;;
71806;SDS011;59655;42.590;23.364;2022-11-14T02:30:56;14.75;;;6.85;;
71806;SDS011;59655;42.590;23.364;2022-11-14T02:33:22;15.75;;;7.57;;
71806;SDS011;59655;42.590;23.364;2022-11-14T02:35:47;14.60;;;7.20;;
71806;SDS011;59655;42.590;23.364;2022-11-14T02:38:12;16.40;;;7.75;;
71806;SDS011;59655;42.590;23.364;2022-11-14T02:40:38;18.05;;;7.22;;
71806;SDS011;59655;42.590;23.364;2022-11-14T02:43:03;17.05;;;7.97;;
71806;SDS011;59655;42.590;23.364;2022-11-14T02:45:29;17.67;;;8.23;;
71806;SDS011;59655;42.590;23.364;2022-11-14T02:47:54;19.25;;;9.13;;
71806;SDS011;59655;42.590;23.364;2022-11-14T02:50:19;18.83;;;9.13;;
71806;SDS011;59655;42.590;23.364;2022-11-14T02:52:45;14.50;;;7.70;;
71806;SDS011;59655;42.590;23.364;2022-11-14T02:55:10;15.43;;;7.93;;
71806;SDS011;59655;42.590;23.364;2022-11-14T02:57:36;17.27;;;8.00;;
71806;SDS011;59655;42.590;23.364;2022-11-14T03:00:02;14.35;;;7.60;;
71806;SDS011;59655;42.590;23.364;2022-11-14T03:02:28;17.33;;;8.55;;
71806;SDS011;59655;42.590;23.364;2022-11-14T03:04:53;18.63;;;9.45;;
71806;SDS011;59655;42.590;23.364;2022-11-14T03:07:19;16.00;;;8.10;;
71806;SDS011;59655;42.590;23.364;2022-11-14T03:09:44;19.40;;;8.25;;
71806;SDS011;59655;42.590;23.364;2022-11-14T03:12:09;20.38;;;8.02;;
71806;SDS011;59655;42.590;23.364;2022-11-14T03:14:35;16.52;;;7.45;;
71806;SDS011;59655;42.590;23.364;2022-11-14T03:17:00;16.48;;;8.02;;
71806;SDS011;59655;42.590;23.364;2022-11-14T03:19:26;17.25;;;7.53;;
71806;SDS011;59655;42.590;23.364;2022-11-14T03:21:51;15.48;;;6.93;;
71806;SDS011;59655;42.590;23.364;2022-11-14T03:24:16;13.32;;;6.95;;
71806;SDS011;59655;42.590;23.364;2022-11-14T03:26:42;13.05;;;6.47;;
71806;SDS011;59655;42.590;23.364;2022-11-14T03:29:07;14.10;;;6.95;;
71806;SDS011;59655;42.590;23.364;2022-11-14T03:31:33;18.00;;;8.05;;
71806;SDS011;59655;42.590;23.364;2022-11-14T03:33:58;19.40;;;8.70;;
71806;SDS011;59655;42.590;23.364;2022-11-14T03:36:24;15.80;;;8.45;;
71806;SDS011;59655;42.590;23.364;2022-11-14T03:38:49;16.63;;;8.68;;
71806;SDS011;59655;42.590;23.364;2022-11-14T03:41:14;16.33;;;8.32;;
71806;SDS011;59655;42.590;23.364;2022-11-14T03:43:40;17.98;;;8.27;;
71806;SDS011;59655;42.590;23.364;2022-11-14T03:46:05;16.77;;;8.73;;
71806;SDS011;59655;42.590;23.364;2022-11-14T03:48:30;14.02;;;6.60;;
71806;SDS011;59655;42.590;23.364;2022-11-14T03:50:56;14.65;;;7.13;;
71806;SDS011;59655;42.590;23.364;2022-11-14T03:53:22;17.00;;;6.40;;
71806;SDS011;59655;42.590;23.364;2022-11-14T03:55:48;10.57;;;5.60;;
71806;SDS011;59655;42.590;23.364;2022-11-14T03:58:13;14.00;;;6.97;;
71806;SDS011;59655;42.590;23.364;2022-11-14T04:00:39;15.27;;;6.72;;
71806;SDS011;59655;42.590;23.364;2022-11-14T04:03:04;13.10;;;6.35;;
71806;SDS011;59655;42.590;23.364;2022-11-14T04:05:30;15.38;;;6.60;;
71806;SDS011;59655;42.590;23.364;2022-11-14T04:07:55;16.95;;;6.97;;
71806;SDS011;59655;42.590;23.364;2022-11-14T04:10:21;14.68;;;6.93;;
71806;SDS011;59655;42.590;23.364;2022-11-14T04:12:50;15.10;;;7.13;;
71806;SDS011;59655;42.590;23.364;2022-11-14T04:15:16;15.20;;;7.25;;
71806;SDS011;59655;42.590;23.364;2022-11-14T04:17:42;15.88;;;7.30;;
71806;SDS011;59655;42.590;23.364;2022-11-14T04:20:08;18.17;;;8.45;;
71806;SDS011;59655;42.590;23.364;2022-11-14T04:22:34;22.02;;;8.48;;
71806;SDS011;59655;42.590;23.364;2022-11-14T04:25:00;17.65;;;7.20;;
71806;SDS011;59655;42.590;23.364;2022-11-14T04:27:25;18.45;;;8.25;;
71806;SDS011;59655;42.590;23.364;2022-11-14T04:29:50;22.15;;;8.65;;
71806;SDS011;59655;42.590;23.364;2022-11-14T04:32:16;18.63;;;8.15;;
71806;SDS011;59655;42.590;23.364;2022-11-14T04:34:41;16.33;;;7.35;;
71806;SDS011;59655;42.590;23.364;2022-11-14T04:37:06;16.70;;;7.65;;
71806;SDS011;59655;42.590;23.364;2022-11-14T04:39:32;21.98;;;8.30;;
71806;SDS011;59655;42.590;23.364;2022-11-14T04:41:57;23.10;;;11.00;;
71806;SDS011;59655;42.590;23.364;2022-11-14T04:44:22;20.38;;;9.50;;
71806;SDS011;59655;42.590;23.364;2022-11-14T04:46:48;34.22;;;14.00;;
71806;SDS011;59655;42.590;23.364;2022-11-14T04:49:13;25.20;;;11.50;;
71806;SDS011;59655;42.590;23.364;2022-11-14T04:51:38;28.05;;;13.40;;
71806;SDS011;59655;42.590;23.364;2022-11-14T04:54:04;20.60;;;10.13;;
71806;SDS011;59655;42.590;23.364;2022-11-14T04:56:29;16.45;;;7.43;;
71806;SDS011;59655;42.590;23.364;2022-11-14T04:58:55;21.17;;;8.50;;
71806;SDS011;59655;42.590;23.364;2022-11-14T05:01:20;17.88;;;8.95;;
71806;SDS011;59655;42.590;23.364;2022-11-14T05:03:46;30.75;;;13.02;;
71806;SDS011;59655;42.590;23.364;2022-11-14T05:06:11;18.17;;;9.02;;
71806;SDS011;59655;42.590;23.364;2022-11-14T05:08:37;15.95;;;7.75;;
71806;SDS011;59655;42.590;23.364;2022-11-14T05:11:02;25.95;;;15.77;;
71806;SDS011;59655;42.590;23.364;2022-11-14T05:13:28;17.30;;;10.45;;
71806;SDS011;59655;42.590;23.364;2022-11-14T05:15:56;21.40;;;9.25;;
71806;SDS011;59655;42.590;23.364;2022-11-14T05:18:22;20.67;;;8.82;;
71806;SDS011;59655;42.590;23.364;2022-11-14T05:20:48;20.88;;;7.63;;
71806;SDS011;59655;42.590;23.364;2022-11-14T05:23:20;16.02;;;6.07;;
71806;SDS011;59655;42.590;23.364;2022-11-14T05:25:57;17.92;;;6.95;;
71806;SDS011;59655;42.590;23.364;2022-11-14T05:28:30;19.52;;;7.47;;
71806;SDS011;59655;42.590;23.364;2022-11-14T05:31:09;23.75;;;8.52;;
71806;SDS011;59655;42.590;23.364;2022-11-14T05:33:41;20.27;;;9.30;;
71806;SDS011;59655;42.590;23.364;2022-11-14T05:36:08;18.20;;;8.95;;
71806;SDS011;59655;42.590;23.364;2022-11-14T05:38:37;21.38;;;9.25;;
71806;SDS011;59655;42.590;23.364;2022-11-14T05:41:20;34.25;;;10.73;;
71806;SDS011;59655;42.590;23.364;2022-11-14T05:43:46;24.73;;;13.13;;
71806;SDS011;59655;42.590;23.364;2022-11-14T05:46:12;28.05;;;15.20;;
71806;SDS011;59655;42.590;23.364;2022-11-14T05:48:39;31.42;;;14.30;;
71806;SDS011;59655;42.590;23.364;2022-11-14T05:51:06;16.65;;;10.18;;
71806;SDS011;59655;42.590;23.364;2022-11-14T05:53:34;22.08;;;9.50;;
71806;SDS011;59655;42.590;23.364;2022-11-14T05:56:00;22.40;;;10.70;;
71806;SDS011;59655;42.590;23.364;2022-11-14T05:58:26;18.30;;;7.95;;
71806;SDS011;59655;42.590;23.364;2022-11-14T06:00:52;30.67;;;10.00;;
71806;SDS011;59655;42.590;23.364;2022-11-14T06:03:17;32.83;;;10.45;;
71806;SDS011;59655;42.590;23.364;2022-11-14T06:05:43;25.60;;;11.23;;
71806;SDS011;59655;42.590;23.364;2022-11-14T06:08:08;25.92;;;12.82;;
71806;SDS011;59655;42.590;23.364;2022-11-14T06:10:34;37.83;;;13.30;;
71806;SDS011;59655;42.590;23.364;2022-11-14T06:13:00;39.10;;;13.60;;
71806;SDS011;59655;42.590;23.364;2022-11-14T06:15:26;32.38;;;14.45;;
71806;SDS011;59655;42.590;23.364;2022-11-14T06:17:54;31.90;;;16.48;;
71806;SDS011;59655;42.590;23.364;2022-11-14T06:20:19;28.50;;;15.88;;
71806;SDS011;59655;42.590;23.364;2022-11-14T06:22:45;33.72;;;15.57;;
71806;SDS011;59655;42.590;23.364;2022-11-14T06:25:10;24.75;;;12.07;;
71806;SDS011;59655;42.590;23.364;2022-11-14T06:27:36;30.52;;;13.95;;
71806;SDS011;59655;42.590;23.364;2022-11-14T06:30:01;23.27;;;11.85;;
71806;SDS011;59655;42.590;23.364;2022-11-14T06:32:27;27.73;;;12.77;;
71806;SDS011;59655;42.590;23.364;2022-11-14T06:34:53;24.67;;;11.38;;
71806;SDS011;59655;42.590;23.364;2022-11-14T06:37:18;27.30;;;12.40;;
71806;SDS011;59655;42.590;23.364;2022-11-14T06:39:43;30.05;;;12.15;;
71806;SDS011;59655;42.590;23.364;2022-11-14T06:42:09;23.85;;;11.45;;
71806;SDS011;59655;42.590;23.364;2022-11-14T06:44:34;22.63;;;11.10;;
71806;SDS011;59655;42.590;23.364;2022-11-14T06:46:59;18.17;;;9.90;;
71806;SDS011;59655;42.590;23.364;2022-11-14T06:49:25;16.60;;;8.68;;
71806;SDS011;59655;42.590;23.364;2022-11-14T06:51:51;19.58;;;11.32;;
71806;SDS011;59655;42.590;23.364;2022-11-14T06:54:17;19.63;;;13.15;;
71806;SDS011;59655;42.590;23.364;2022-11-14T06:56:42;21.48;;;12.43;;
71806;SDS011;59655;42.590;23.364;2022-11-14T06:59:08;22.52;;;12.73;;
71806;SDS011;59655;42.590;23.364;2022-11-14T07:01:33;18.52;;;9.93;;
71806;SDS011;59655;42.590;23.364;2022-11-14T07:03:59;29.13;;;10.25;;
71806;SDS011;59655;42.590;23.364;2022-11-14T07:06:26;15.07;;;8.07;;
71806;SDS011;59655;42.590;23.364;2022-11-14T07:08:53;18.48;;;8.60;;
71806;SDS011;59655;42.590;23.364;2022-11-14T07:11:20;28.00;;;11.05;;
71806;SDS011;59655;42.590;23.364;2022-11-14T07:13:58;33.45;;;10.73;;
71806;SDS011;59655;42.590;23.364;2022-11-14T07:16:27;21.55;;;9.48;;
71806;SDS011;59655;42.590;23.364;2022-11-14T07:18:59;26.98;;;11.65;;
71806;SDS011;59655;42.590;23.364;2022-11-14T07:21:26;24.42;;;11.85;;
71806;SDS011;59655;42.590;23.364;2022-11-14T07:23:52;28.35;;;11.95;;
71806;SDS011;59655;42.590;23.364;2022-11-14T07:26:18;25.60;;;12.40;;
71806;SDS011;59655;42.590;23.364;2022-11-14T07:28:43;28.65;;;13.38;;
71806;SDS011;59655;42.590;23.364;2022-11-14T07:31:13;31.38;;;13.18;;
71806;SDS011;59655;42.590;23.364;2022-11-14T07:33:40;23.77;;;11.43;;
71806;SDS011;59655;42.590;23.364;2022-11-14T07:36:07;21.23;;;10.63;;
71806;SDS011;59655;42.590;23.364;2022-11-14T07:38:34;21.25;;;10.38;;
71806;SDS011;59655;42.590;23.364;2022-11-14T07:41:10;19.90;;;9.20;;
71806;SDS011;59655;42.590;23.364;2022-11-14T07:43:37;16.20;;;8.55;;
71806;SDS011;59655;42.590;23.364;2022-11-14T07:46:06;17.23;;;8.70;;
71806;SDS011;59655;42.590;23.364;2022-11-14T07:48:34;20.92;;;9.95;;
71806;SDS011;59655;42.590;23.364;2022-11-14T07:51:01;19.27;;;8.57;;
71806;SDS011;59655;42.590;23.364;2022-11-14T07:53:27;19.50;;;9.35;;
71806;SDS011;59655;42.590;23.364;2022-11-14T07:55:53;20.67;;;9.80;;
71806;SDS011;59655;42.590;23.364;2022-11-14T07:58:19;18.75;;;9.43;;
71806;SDS011;59655;42.590;23.364;2022-11-14T08:00:45;19.88;;;9.55;;
71806;SDS011;59655;42.590;23.364;2022-11-14T08:03:10;20.88;;;10.27;;
71806;SDS011;59655;42.590;23.364;2022-11-14T08:05:36;24.05;;;10.60;;
71806;SDS011;59655;42.590;23.364;2022-11-14T08:08:02;19.95;;;10.18;;
71806;SDS011;59655;42.590;23.364;2022-11-14T08:10:27;23.05;;;11.85;;
71806;SDS011;59655;42.590;23.364;2022-11-14T08:13:00;24.05;;;11.98;;
71806;SDS011;59655;42.590;23.364;2022-11-14T08:15:27;24.83;;;12.82;;
71806;SDS011;59655;42.590;23.364;2022-11-14T08:17:56;24.40;;;14.07;;
71806;SDS011;59655;42.590;23.364;2022-11-14T08:20:22;25.52;;;13.52;;
71806;SDS011;59655;42.590;23.364;2022-11-14T08:22:48;29.60;;;14.07;;
71806;SDS011;59655;42.590;23.364;2022-11-14T08:25:14;27.80;;;14.35;;
71806;SDS011;59655;42.590;23.364;2022-11-14T08:27:39;27.20;;;14.10;;
71806;SDS011;59655;42.590;23.364;2022-11-14T08:30:05;31.88;;;14.73;;
71806;SDS011;59655;42.590;23.364;2022-11-14T08:32:31;27.58;;;13.52;;
71806;SDS011;59655;42.590;23.364;2022-11-14T08:34:56;28.58;;;13.20;;
71806;SDS011;59655;42.590;23.364;2022-11-14T08:37:21;25.70;;;12.98;;
71806;SDS011;59655;42.590;23.364;2022-11-14T08:39:47;26.75;;;12.85;;
71806;SDS011;59655;42.590;23.364;2022-11-14T08:42:12;23.50;;;12.55;;
71806;SDS011;59655;42.590;23.364;2022-11-14T08:44:38;25.23;;;12.50;;
71806;SDS011;59655;42.590;23.364;2022-11-14T08:47:03;27.13;;;12.85;;
71806;SDS011;59655;42.590;23.364;2022-11-14T08:49:29;32.65;;;14.50;;
71806;SDS011;59655;42.590;23.364;2022-11-14T08:51:54;30.20;;;14.35;;
71806;SDS011;59655;42.590;23.364;2022-11-14T08:54:19;28.40;;;14.55;;
71806;SDS011;59655;42.590;23.364;2022-11-14T08:56:45;33.08;;;15.70;;
71806;SDS011;59655;42.590;23.364;2022-11-14T08:59:10;29.45;;;15.18;;
71806;SDS011;59655;42.590;23.364;2022-11-14T09:01:36;31.25;;;15.50;;
71806;SDS011;59655;42.590;23.364;2022-11-14T09:04:01;32.05;;;15.88;;
71806;SDS011;59655;42.590;23.364;2022-11-14T09:06:27;34.83;;;15.48;;
71806;SDS011;59655;42.590;23.364;2022-11-14T09:08:53;32.50;;;14.63;;
71806;SDS011;59655;42.590;23.364;2022-11-14T09:11:19;32.40;;;15.32;;
71806;SDS011;59655;42.590;23.364;2022-11-14T09:13:45;33.47;;;15.90;;
71806;SDS011;59655;42.590;23.364;2022-11-14T09:16:10;32.03;;;14.80;;
71806;SDS011;59655;42.590;23.364;2022-11-14T09:18:35;34.60;;;15.02;;
71806;SDS011;59655;42.590;23.364;2022-11-14T09:21:02;30.77;;;14.27;;
71806;SDS011;59655;42.590;23.364;2022-11-14T09:23:28;32.13;;;14.98;;
71806;SDS011;59655;42.590;23.364;2022-11-14T09:25:54;28.20;;;13.63;;
71806;SDS011;59655;42.590;23.364;2022-11-14T09:28:21;30.20;;;14.02;;
71806;SDS011;59655;42.590;23.364;2022-11-14T09:30:49;27.40;;;13.55;;
71806;SDS011;59655;42.590;23.364;2022-11-14T09:33:14;24.20;;;12.60;;
71806;SDS011;59655;42.590;23.364;2022-11-14T09:35:40;24.52;;;11.52;;
71806;SDS011;59655;42.590;23.364;2022-11-14T09:38:07;25.90;;;12.52;;
71806;SDS011;59655;42.590;23.364;2022-11-14T09:46:21;33.67;;;14.90;;
71806;SDS011;59655;42.590;23.364;2022-11-14T09:48:50;37.15;;;17.23;;
71806;SDS011;59655;42.590;23.364;2022-11-14T09:51:20;36.03;;;15.50;;
71806;SDS011;59655;42.590;23.364;2022-11-14T09:53:53;37.85;;;16.13;;
71806;SDS011;59655;42.590;23.364;2022-11-14T09:56:23;33.97;;;15.57;;
71806;SDS011;59655;42.590;23.364;2022-11-14T09:58:50;37.40;;;16.55;;
71806;SDS011;59655;42.590;23.364;2022-11-14T10:12:39;33.10;;;15.25;;
71806;SDS011;59655;42.590;23.364;2022-11-14T10:15:17;39.92;;;16.05;;
71806;SDS011;59655;42.590;23.364;2022-11-14T10:17:54;30.77;;;13.70;;
71806;SDS011;59655;42.590;23.364;2022-11-14T10:34:16;32.67;;;13.70;;
71806;SDS011;59655;42.590;23.364;2022-11-14T10:37:10;25.38;;;12.85;;
71806;SDS011;59655;42.590;23.364;2022-11-14T10:39:51;27.77;;;13.00;;
71806;SDS011;59655;42.590;23.364;2022-11-14T10:42:30;29.92;;;12.23;;
71806;SDS011;59655;42.590;23.364;2022-11-14T10:48:02;35.75;;;14.15;;
71806;SDS011;59655;42.590;23.364;2022-11-14T10:50:43;32.17;;;13.55;;
71806;SDS011;59655;42.590;23.364;2022-11-14T10:53:27;31.73;;;12.77;;
71806;SDS011;59655;42.590;23.364;2022-11-14T10:56:02;29.92;;;12.38;;
71806;SDS011;59655;42.590;23.364;2022-11-14T10:58:28;30.77;;;12.98;;
71806;SDS011;59655;42.590;23.364;2022-11-14T11:00:53;25.25;;;11.65;;
71806;SDS011;59655;42.590;23.364;2022-11-14T11:03:19;25.42;;;12.02;;
71806;SDS011;59655;42.590;23.364;2022-11-14T11:05:46;28.95;;;12.93;;
71806;SDS011;59655;42.590;23.364;2022-11-14T11:08:21;30.60;;;13.25;;
71806;SDS011;59655;42.590;23.364;2022-11-14T11:11:12;30.85;;;13.70;;
71806;SDS011;59655;42.590;23.364;2022-11-14T11:13:53;35.47;;;14.52;;
71806;SDS011;59655;42.590;23.364;2022-11-14T11:16:21;35.47;;;14.90;;
71806;SDS011;59655;42.590;23.364;2022-11-14T11:18:48;31.48;;;14.05;;
71806;SDS011;59655;42.590;23.364;2022-11-14T11:21:16;34.28;;;13.88;;
71806;SDS011;59655;42.590;23.364;2022-11-14T11:26:19;32.17;;;13.70;;
71806;SDS011;59655;42.590;23.364;2022-11-14T11:34:11;56.17;;;22.73;;
71806;SDS011;59655;42.590;23.364;2022-11-14T11:36:38;64.72;;;24.30;;
71806;SDS011;59655;42.590;23.364;2022-11-14T11:39:15;64.07;;;26.38;;
71806;SDS011;59655;42.590;23.364;2022-11-14T11:41:47;67.78;;;26.52;;
71806;SDS011;59655;42.590;23.364;2022-11-14T11:44:15;72.45;;;27.73;;
71806;SDS011;59655;42.590;23.364;2022-11-14T11:46:51;70.97;;;26.73;;
71806;SDS011;59655;42.590;23.364;2022-11-14T11:50:10;64.93;;;25.08;;
71806;SDS011;59655;42.590;23.364;2022-11-14T11:52:22;61.03;;;23.15;;
71806;SDS011;59655;42.590;23.364;2022-11-14T11:55:12;62.25;;;24.35;;
71806;SDS011;59655;42.590;23.364;2022-11-14T12:00:15;62.92;;;23.52;;
71806;SDS011;59655;42.590;23.364;2022-11-14T12:02:46;50.67;;;20.90;;
71806;SDS011;59655;42.590;23.364;2022-11-14T12:07:46;39.47;;;16.50;;
71806;SDS011;59655;42.590;23.364;2022-11-14T12:10:22;35.63;;;14.85;;
71806;SDS011;59655;42.590;23.364;2022-11-14T12:18:32;53.13;;;21.27;;
71806;SDS011;59655;42.590;23.364;2022-11-14T12:32:16;34.53;;;13.02;;
71806;SDS011;59655;42.590;23.364;2022-11-14T12:34:45;37.42;;;14.18;;
71806;SDS011;59655;42.590;23.364;2022-11-14T12:37:55;33.95;;;14.63;;
71806;SDS011;59655;42.590;23.364;2022-11-14T12:40:11;35.03;;;15.02;;
71806;SDS011;59655;42.590;23.364;2022-11-14T12:42:46;35.10;;;14.35;;
71806;SDS011;59655;42.590;23.364;2022-11-14T12:50:46;34.00;;;13.65;;
71806;SDS011;59655;42.590;23.364;2022-11-14T13:01:29;33.78;;;14.32;;
71806;SDS011;59655;42.590;23.364;2022-11-14T13:12:36;34.38;;;12.32;;
71806;SDS011;59655;42.590;23.364;2022-11-14T13:21:20;32.88;;;13.07;;
71806;SDS011;59655;42.590;23.364;2022-11-14T13:24:08;26.20;;;11.23;;
71806;SDS011;59655;42.590;23.364;2022-11-14T13:26:36;20.05;;;9.52;;
71806;SDS011;59655;42.590;23.364;2022-11-14T13:29:02;22.25;;;9.68;;
71806;SDS011;59655;42.590;23.364;2022-11-14T13:33:59;21.75;;;10.23;;
71806;SDS011;59655;42.590;23.364;2022-11-14T13:47:21;23.33;;;10.55;;
71806;SDS011;59655;42.590;23.364;2022-11-14T13:50:11;22.73;;;10.45;;
71806;SDS011;59655;42.590;23.364;2022-11-14T13:52:45;22.60;;;10.38;;
71806;SDS011;59655;42.590;23.364;2022-11-14T13:58:07;17.73;;;8.15;;
71806;SDS011;59655;42.590;23.364;2022-11-14T14:06:26;44.45;;;15.55;;
71806;SDS011;59655;42.590;23.364;2022-11-14T14:32:35;30.48;;;12.43;;
71806;SDS011;59655;42.590;23.364;2022-11-14T14:37:50;60.75;;;22.10;;
71806;SDS011;59655;42.590;23.364;2022-11-14T14:40:39;105.75;;;35.97;;
71806;SDS011;59655;42.590;23.364;2022-11-14T14:43:04;108.93;;;34.20;;
71806;SDS011;59655;42.590;23.364;2022-11-14T14:45:43;86.00;;;24.23;;
71806;SDS011;59655;42.590;23.364;2022-11-14T14:48:12;90.63;;;26.05;;
71806;SDS011;59655;42.590;23.364;2022-11-14T14:50:39;107.68;;;32.92;;
71806;SDS011;59655;42.590;23.364;2022-11-14T14:53:06;72.68;;;25.00;;
71806;SDS011;59655;42.590;23.364;2022-11-14T14:55:49;91.15;;;28.83;;
71806;SDS011;59655;42.590;23.364;2022-11-14T15:00:50;58.83;;;21.98;;
71806;SDS011;59655;42.590;23.364;2022-11-14T15:03:19;51.10;;;18.77;;
71806;SDS011;59655;42.590;23.364;2022-11-14T15:05:45;65.60;;;25.38;;
71806;SDS011;59655;42.590;23.364;2022-11-14T15:08:11;35.42;;;16.30;;
71806;SDS011;59655;42.590;23.364;2022-11-14T15:10:39;47.60;;;20.80;;
71806;SDS011;59655;42.590;23.364;2022-11-14T15:13:06;47.35;;;18.70;;
71806;SDS011;59655;42.590;23.364;2022-11-14T15:15:35;37.78;;;17.88;;
71806;SDS011;59655;42.590;23.364;2022-11-14T15:18:04;37.75;;;17.58;;
71806;SDS011;59655;42.590;23.364;2022-11-14T15:20:31;47.70;;;22.50;;
71806;SDS011;59655;42.590;23.364;2022-11-14T15:25:34;34.20;;;15.55;;
71806;SDS011;59655;42.590;23.364;2022-11-14T15:28:01;54.50;;;22.95;;
71806;SDS011;59655;42.590;23.364;2022-11-14T15:30:28;32.35;;;15.00;;
71806;SDS011;59655;42.590;23.364;2022-11-14T15:32:59;23.02;;;10.75;;
71806;SDS011;59655;42.590;23.364;2022-11-14T15:35:35;32.03;;;19.13;;
71806;SDS011;59655;42.590;23.364;2022-11-14T15:38:03;57.13;;;29.17;;
71806;SDS011;59655;42.590;23.364;2022-11-14T15:40:36;59.17;;;30.70;;
71806;SDS011;59655;42.590;23.364;2022-11-14T15:48:58;82.93;;;41.60;;
71806;SDS011;59655;42.590;23.364;2022-11-14T15:51:38;51.00;;;30.65;;
71806;SDS011;59655;42.590;23.364;2022-11-14T15:54:17;143.82;;;61.75;;
71806;SDS011;59655;42.590;23.364;2022-11-14T15:56:45;54.65;;;25.08;;
71806;SDS011;59655;42.590;23.364;2022-11-14T15:59:10;45.70;;;20.75;;
71806;SDS011;59655;42.590;23.364;2022-11-14T16:01:36;46.85;;;23.45;;
71806;SDS011;59655;42.590;23.364;2022-11-14T16:04:01;56.05;;;27.63;;
71806;SDS011;59655;42.590;23.364;2022-11-14T16:06:27;105.50;;;47.33;;
71806;SDS011;59655;42.590;23.364;2022-11-14T16:08:52;142.75;;;67.15;;
71806;SDS011;59655;42.590;23.364;2022-11-14T16:11:18;121.22;;;53.17;;
71806;SDS011;59655;42.590;23.364;2022-11-14T16:13:43;142.02;;;58.15;;
71806;SDS011;59655;42.590;23.364;2022-11-14T16:16:08;138.85;;;56.03;;
71806;SDS011;59655;42.590;23.364;2022-11-14T16:18:34;118.88;;;57.03;;
71806;SDS011;59655;42.590;23.364;2022-11-14T16:20:59;99.10;;;49.40;;
71806;SDS011;59655;42.590;23.364;2022-11-14T16:23:24;87.90;;;44.15;;
71806;SDS011;59655;42.590;23.364;2022-11-14T16:25:50;85.20;;;45.92;;
71806;SDS011;59655;42.590;23.364;2022-11-14T16:28:15;85.63;;;45.40;;
71806;SDS011;59655;42.590;23.364;2022-11-14T16:30:40;78.10;;;40.67;;
71806;SDS011;59655;42.590;23.364;2022-11-14T16:33:06;82.05;;;46.08;;
71806;SDS011;59655;42.590;23.364;2022-11-14T16:35:32;65.32;;;36.38;;
71806;SDS011;59655;42.590;23.364;2022-11-14T16:37:58;41.75;;;23.98;;
71806;SDS011;59655;42.590;23.364;2022-11-14T16:40:24;35.88;;;19.52;;
71806;SDS011;59655;42.590;23.364;2022-11-14T16:45:21;49.33;;;23.20;;
71806;SDS011;59655;42.590;23.364;2022-11-14T16:47:47;60.72;;;29.80;;
71806;SDS011;59655;42.590;23.364;2022-11-14T16:50:13;74.05;;;34.20;;
71806;SDS011;59655;42.590;23.364;2022-11-14T16:52:39;62.35;;;28.42;;
71806;SDS011;59655;42.590;23.364;2022-11-14T16:55:05;56.67;;;27.73;;
71806;SDS011;59655;42.590;23.364;2022-11-14T16:57:31;48.25;;;24.77;;
71806;SDS011;59655;42.590;23.364;2022-11-14T16:59:56;45.78;;;23.45;;
71806;SDS011;59655;42.590;23.364;2022-11-14T17:02:22;49.90;;;24.65;;